Time;durP1;ratioP1;P1;durP2;ratioP2;P2;SDS_P1;SDS_P2;PMS_P1;PMS_P2;Temp;Humidity;BMP_temperature;BMP_pressure;BME280_temperature;BME280_humidity;BME280_pressure;Samples;Min_cycle;Max_cycle;Signal;HPM_P1;HPM_P2
2021/12/22 00:01:40;;;;;;;42.88;25.25;;;;;;;-144.19;100.00;80013.59;5016310;28;20049;-85
2021/12/22 00:04:06;;;;;;;;;;;;;;;-144.19;100.00;80001.78;5016481;28;20479;-85
2021/12/22 00:06:34;;;;;;;42.88;24.80;;;;;;;-144.19;100.00;79997.84;5016224;28;19947;-87
2021/12/22 00:09:04;;;;;;;39.47;25.27;;;;;;;-144.19;100.00;79991.94;5016351;28;20068;-86
2021/12/22 00:11:30;;;;;;;39.33;25.83;;;;;;;-144.19;100.00;80007.69;5016300;28;20060;-85
2021/12/22 00:13:57;;;;;;;42.95;26.05;;;;;;;-144.19;100.00;79986.03;5016056;28;20045;-87
2021/12/22 00:16:23;;;;;;;42.47;24.60;;;;;;;-144.19;100.00;79988.00;5015611;28;20060;-88
2021/12/22 00:18:50;;;;;;;40.03;24.45;;;;;;;-144.19;100.00;79986.03;5014506;28;20053;-86
2021/12/22 00:21:16;;;;;;;38.70;23.63;;;;;;;-144.19;100.00;79982.09;5034014;28;20053;-88
2021/12/22 00:23:43;;;;;;;39.20;24.45;;;;;;;-144.19;100.00;79993.91;5015970;28;20053;-86
2021/12/22 00:26:09;;;;;;;33.33;22.67;;;;;;;-144.19;100.00;79986.03;5016323;28;20045;-87
2021/12/22 00:28:36;;;;;;;30.55;21.08;;;;;;;-144.19;100.00;79976.19;5034168;28;20503;-86
2021/12/22 00:31:10;;;;;;;36.13;23.05;;;;;;;-144.19;100.00;79964.34;5016288;28;20380;-85
2021/12/22 00:33:45;;;;;;;32.53;20.95;;;;;;;-144.19;100.00;79978.16;5033545;28;20054;-87
2021/12/22 00:36:12;;;;;;;36.65;23.10;;;;;;;-144.19;100.00;79978.16;5033493;28;20050;-86
2021/12/22 00:38:38;;;;;;;33.40;22.65;;;;;;;-144.19;100.00;79991.94;5034410;28;20096;-86
2021/12/22 00:41:05;;;;;;;36.25;22.85;;;;;;;-144.19;100.00;79997.84;5032387;28;20061;-84
2021/12/22 00:43:32;;;;;;;38.45;23.67;;;;;;;-144.19;100.00;79989.97;5032312;28;20053;-85
2021/12/22 00:45:58;;;;;;;33.03;22.27;;;;;;;-144.19;100.00;79989.97;5031478;28;20133;-86
2021/12/22 00:48:25;;;;;;;33.95;22.10;;;;;;;-144.19;100.00;80009.66;5029706;28;20053;-85
2021/12/22 00:50:51;;;;;;;27.98;20.70;;;;;;;-144.19;100.00;80009.66;5016490;28;20535;-85
2021/12/22 00:53:18;;;;;;;28.60;20.40;;;;;;;-144.19;100.00;80025.44;5016980;28;20136;-87
2021/12/22 00:55:44;;;;;;;28.15;20.95;;;;;;;-144.19;100.00;80029.38;5018047;28;20057;-87
2021/12/22 00:58:11;;;;;;;31.70;20.48;;;;;;;-144.19;100.00;80062.84;5022583;28;20224;-87
2021/12/22 01:00:37;;;;;;;28.00;20.33;;;;;;;-144.19;100.00;80053.00;5023031;28;20095;-87
2021/12/22 01:03:04;;;;;;;31.10;21.02;;;;;;;-144.19;100.00;80045.13;5022807;28;20100;-88
2021/12/22 01:05:32;;;;;;;29.02;19.60;;;;;;;-144.19;100.00;80025.44;5039710;28;20049;-88
2021/12/22 01:07:58;;;;;;;;;;;;;;;-144.19;100.00;80033.31;5022293;28;20049;-88
2021/12/22 01:10:28;;;;;;;29.48;19.83;;;;;;;-144.19;100.00;80029.38;5021998;28;19927;-88
2021/12/22 01:12:58;;;;;;;29.60;20.92;;;;;;;-144.19;100.00;80019.53;5032278;28;20522;-87
2021/12/22 01:15:27;;;;;;;29.77;20.42;;;;;;;-144.19;100.00;80021.50;5021114;28;20049;-87
2021/12/22 01:18:05;;;;;;;27.08;20.25;;;;;;;-144.19;100.00;80019.53;5039274;28;20052;-89
2021/12/22 01:20:50;;;;;;;26.48;18.73;;;;;;;-144.19;100.00;80011.63;5022159;28;20460;-84
2021/12/22 01:23:19;;;;;;;27.17;19.17;;;;;;;-144.19;100.00;80021.50;5021507;28;20063;-85
2021/12/22 01:25:48;;;;;;;27.52;19.77;;;;;;;-144.19;100.00;80029.38;5021256;28;20061;-87
2021/12/22 01:28:16;;;;;;;28.27;19.33;;;;;;;-144.19;100.00;80029.38;5021556;28;20136;-85
2021/12/22 01:30:45;;;;;;;26.17;17.55;;;;;;;-144.19;100.00;80056.94;5022061;28;20053;-87
2021/12/22 01:33:13;;;;;;;26.58;18.50;;;;;;;-144.19;100.00;80094.38;5021907;28;20063;-86
2021/12/22 01:35:41;;;;;;;24.52;17.40;;;;;;;-144.19;100.00;80082.56;5039152;28;20392;-85
2021/12/22 01:38:07;;;;;;;24.80;18.98;;;;;;;-144.19;100.00;80062.84;5037557;28;20041;-85
2021/12/22 01:40:38;;;;;;;27.08;18.42;;;;;;;-144.19;100.00;80072.72;5026196;28;20064;-85
2021/12/22 01:43:05;;;;;;;26.45;16.80;;;;;;;-144.19;100.00;80076.66;5038998;28;20060;-85
2021/12/22 01:51:38;;;;;;;24.58;17.60;;;;;;;-144.19;100.00;80060.88;5051500;28;20050;-88
2021/12/22 01:54:13;;;;;;;29.23;18.40;;;;;;;-144.19;100.00;80051.03;5022243;28;20060;-87
2021/12/22 01:56:42;;;;;;;27.05;18.55;;;;;;;-144.19;100.00;80070.75;5021575;28;20049;-85
2021/12/22 01:59:09;;;;;;;24.88;16.90;;;;;;;-144.19;100.00;80049.06;5021587;28;20052;-87
2021/12/22 02:01:37;;;;;;;24.52;18.17;;;;;;;-144.19;100.00;80037.25;5038969;28;20049;-87
2021/12/22 02:04:10;;;;;;;24.73;17.05;;;;;;;-144.19;100.00;80047.09;5021780;28;20064;-86
2021/12/22 02:06:43;;;;;;;25.88;18.92;;;;;;;-144.19;100.00;80053.00;5020419;28;20088;-86
2021/12/22 02:09:32;;;;;;;26.33;18.55;;;;;;;-144.19;100.00;80037.25;5018311;28;20050;-86
2021/12/22 02:11:59;;;;;;;25.88;17.67;;;;;;;-144.19;100.00;80041.19;5018182;28;20506;-85
2021/12/22 02:14:25;;;;;;;24.42;16.60;;;;;;;-144.19;100.00;80056.94;5017845;28;20045;-87
2021/12/22 02:16:52;;;;;;;24.23;17.35;;;;;;;-144.19;100.00;80056.94;5035261;28;20080;-86
2021/12/22 02:19:18;;;;;;;26.38;17.52;;;;;;;-144.19;100.00;80068.78;5035316;28;20057;-86
2021/12/22 02:21:51;;;;;;;25.88;17.40;;;;;;;-144.19;100.00;80078.63;5035979;28;20060;-86
2021/12/22 02:24:17;;;;;;;25.45;17.27;;;;;;;-144.19;100.00;80074.69;5035278;28;20058;-85
2021/12/22 02:26:51;;;;;;;24.80;16.98;;;;;;;-144.19;100.00;80053.00;5017824;28;20053;-85
2021/12/22 02:29:23;;;;;;;25.73;19.30;;;;;;;-144.19;100.00;80049.06;5017729;28;20053;-86
2021/12/22 02:32:04;;;;;;;23.33;17.08;;;;;;;-144.19;100.00;80056.94;5017423;28;20053;-87
2021/12/22 02:34:38;;;;;;;25.63;17.48;;;;;;;-144.19;100.00;80049.06;5017291;28;20069;-86
2021/12/22 02:37:10;;;;;;;22.50;16.98;;;;;;;-144.19;100.00;80058.91;5033919;28;20058;-88
2021/12/22 02:39:43;;;;;;;26.65;17.63;;;;;;;-144.19;100.00;80080.59;5033838;28;20045;-86
2021/12/22 02:42:12;;;;;;;23.42;16.90;;;;;;;-144.19;100.00;80096.34;5033364;28;20060;-86
2021/12/22 02:44:39;;;;;;;27.55;17.23;;;;;;;-144.19;100.00;80090.44;5032916;28;20492;-85
2021/12/22 02:47:15;;;;;;;;;;;;;;;-144.19;100.00;80068.78;5033156;28;20073;-87
2021/12/22 02:49:42;;;;;;;23.20;16.40;;;;;;;-144.19;100.00;80092.41;5016714;28;20426;-84
2021/12/22 02:52:08;;;;;;;26.23;18.20;;;;;;;-144.19;100.00;80076.66;5016976;28;20077;-86
2021/12/22 02:54:41;;;;;;;23.55;17.67;;;;;;;-144.19;100.00;80080.59;5016738;28;20405;-85
2021/12/22 02:57:20;;;;;;;24.98;16.73;;;;;;;-144.19;100.00;80094.38;5015421;28;20056;-87
2021/12/22 03:02:43;;;;;;;26.27;18.58;;;;;;;-144.19;100.00;80100.28;5034182;28;20049;-84
2021/12/22 03:05:10;;;;;;;26.05;17.08;;;;;;;-144.19;100.00;80100.28;5033442;28;20499;-87
2021/12/22 03:07:37;;;;;;;26.27;18.38;;;;;;;-144.19;100.00;80084.53;5033636;28;20046;-87
2021/12/22 03:10:14;;;;;;;26.45;18.02;;;;;;;-144.19;100.00;80076.66;5016067;28;20052;-85
2021/12/22 03:12:41;;;;;;;28.95;18.50;;;;;;;-144.19;100.00;80078.63;5015849;28;20053;-85
2021/12/22 03:15:09;;;;;;;25.58;17.85;;;;;;;-144.19;100.00;80078.63;5015965;28;20136;-84
2021/12/22 03:17:37;;;;;;;27.73;18.08;;;;;;;-144.19;100.00;80094.38;5032785;28;20506;-85
2021/12/22 03:20:09;;;;;;;28.38;19.73;;;;;;;-144.19;100.00;80088.47;5015915;28;20046;-88
2021/12/22 03:22:37;;;;;;;27.30;18.58;;;;;;;-144.19;100.00;80094.38;5033055;28;20061;-88
2021/12/22 03:25:13;;;;;;;28.92;19.45;;;;;;;-144.19;100.00;80078.63;5033826;28;20052;-86
2021/12/22 03:27:43;;;;;;;27.80;18.08;;;;;;;-144.19;100.00;80096.34;5015820;28;20560;-85
2021/12/22 03:30:11;;;;;;;24.63;17.13;;;;;;;-144.19;100.00;80112.13;5016270;28;20060;-88
2021/12/22 03:32:38;;;;;;;25.45;17.70;;;;;;;-144.19;100.00;80127.88;5033996;28;20045;-86
2021/12/22 03:35:05;;;;;;;;;;;;;;;-144.19;100.00;80112.13;5020226;28;20068;-87
2021/12/22 03:37:31;;;;;;;26.60;17.38;;;;;;;-144.19;100.00;80116.06;5031977;28;19920;-86
2021/12/22 03:39:57;;;;;;;24.40;17.45;;;;;;;-144.19;100.00;80112.13;5016912;28;20049;-85
2021/12/22 03:42:24;;;;;;;25.35;17.42;;;;;;;-144.19;100.00;80108.19;5016321;28;20061;-86
2021/12/22 03:44:50;;;;;;;25.55;17.65;;;;;;;-144.19;100.00;80121.97;5033741;28;20056;-84
2021/12/22 03:47:17;;;;;;;24.17;17.33;;;;;;;-144.19;100.00;80116.06;5016463;28;20072;-87
2021/12/22 03:49:43;;;;;;;21.40;13.45;;;;;;;-144.19;100.00;80120.00;5033276;28;20045;-86
2021/12/22 03:52:09;;;;;;;22.95;17.05;;;;;;;-144.19;100.00;80112.13;5023758;28;20061;-87
2021/12/22 03:54:36;;;;;;;24.33;16.80;;;;;;;-144.19;100.00;80116.06;5020036;28;20053;-85
2021/12/22 03:57:02;;;;;;;28.08;17.15;;;;;;;-144.19;100.00;80123.94;5015730;28;20068;-84
2021/12/22 03:59:29;;;;;;;26.17;17.27;;;;;;;-144.19;100.00;80104.22;5020859;28;20046;-88
2021/12/22 04:01:55;;;;;;;34.95;20.75;;;;;;;-144.19;100.00;80108.19;5033569;28;20057;-86
2021/12/22 04:04:22;;;;;;;29.48;18.45;;;;;;;-144.19;100.00;80100.28;5032936;28;20056;-86
2021/12/22 04:06:50;;;;;;;30.13;18.42;;;;;;;-144.19;100.00;80092.41;5033253;28;20052;-85
2021/12/22 04:09:17;;;;;;;26.08;17.13;;;;;;;-144.19;100.00;80098.31;5015531;28;20060;-86
2021/12/22 04:11:44;;;;;;;29.13;18.48;;;;;;;-144.19;100.00;80086.50;5015392;28;20050;-88
2021/12/22 04:14:12;;;;;;;29.10;18.10;;;;;;;-144.19;100.00;80088.47;5014816;28;20046;-87
2021/12/22 04:16:38;;;;;;;29.05;17.60;;;;;;;-144.19;100.00;80080.59;5014698;28;20055;-87
2021/12/22 04:19:04;;;;;;;24.05;17.35;;;;;;;-144.19;100.00;80106.19;5013544;28;20064;-85
2021/12/22 04:21:31;;;;;;;27.25;16.83;;;;;;;-144.19;100.00;80112.13;5032185;28;20065;-87
2021/12/22 04:23:58;;;;;;;25.52;16.48;;;;;;;-144.19;100.00;80131.81;5015900;28;20050;-88
2021/12/22 04:26:26;;;;;;;24.90;15.88;;;;;;;-144.19;100.00;80121.97;5015202;28;20053;-87
2021/12/22 04:28:53;;;;;;;24.42;17.65;;;;;;;-144.19;100.00;80121.97;5015389;28;20250;-87
2021/12/22 04:31:19;;;;;;;;;;;;;;;-144.19;100.00;80123.94;5015163;28;20049;-86
2021/12/22 04:33:46;;;;;;;26.42;18.63;;;;;;;-144.19;100.00;80121.97;5015685;28;20437;-88
2021/12/22 04:36:12;;;;;;;23.10;16.00;;;;;;;-144.19;100.00;80116.06;5027074;28;20060;-86
2021/12/22 04:38:39;;;;;;;24.40;15.60;;;;;;;-144.19;100.00;80118.03;5031481;28;20054;-87
2021/12/22 04:41:05;;;;;;;23.48;16.13;;;;;;;-144.19;100.00;80116.06;5031107;28;20060;-87
2021/12/22 04:43:32;;;;;;;29.85;17.50;;;;;;;-144.19;100.00;80100.28;5031670;28;20060;-87
2021/12/22 04:45:58;;;;;;;28.63;16.85;;;;;;;-144.19;100.00;80108.19;5030297;28;20715;-87
2021/12/22 04:48:25;;;;;;;22.33;14.88;;;;;;;-144.19;100.00;80127.88;5015368;28;20050;-87
2021/12/22 04:50:51;;;;;;;23.55;15.35;;;;;;;-144.19;100.00;80135.75;5015866;28;20052;-87
2021/12/22 04:53:24;;;;;;;25.42;15.40;;;;;;;-144.19;100.00;80131.81;5021410;28;20045;-85
2021/12/22 04:55:55;;;;;;;25.73;15.90;;;;;;;-144.19;100.00;80116.06;5015752;28;20052;-85
2021/12/22 04:58:22;;;;;;;24.25;16.25;;;;;;;-144.19;100.00;80125.91;5015217;28;20053;-85
2021/12/22 05:00:48;;;;;;;23.65;16.55;;;;;;;-144.19;100.00;80127.88;5015587;28;20500;-85
2021/12/22 05:03:15;;;;;;;22.65;15.98;;;;;;;-144.19;100.00;80131.81;5014703;28;20128;-85
2021/12/22 05:05:41;;;;;;;19.88;12.65;;;;;;;-144.19;100.00;80118.03;5014437;28;20045;-87
2021/12/22 05:08:07;;;;;;;18.98;11.95;;;;;;;-144.19;100.00;80112.13;5013499;28;20423;-87
2021/12/22 05:10:34;;;;;;;24.35;16.77;;;;;;;-144.19;100.00;80116.06;5014145;28;20053;-86
2021/12/22 05:13:00;;;;;;;21.95;14.98;;;;;;;-144.19;100.00;80120.00;5031997;28;20063;-84
2021/12/22 05:15:36;;;;;;;25.48;15.68;;;;;;;-144.19;100.00;80120.00;5032141;28;20054;-84
2021/12/22 05:18:20;;;;;;;26.23;15.02;;;;;;;-144.19;100.00;80100.28;5013129;28;20052;-86
2021/12/22 05:20:47;;;;;;;23.80;16.70;;;;;;;-144.19;100.00;80123.94;5013195;28;20389;-85
2021/12/22 05:23:15;;;;;;;27.17;15.77;;;;;;;-144.19;100.00;80139.69;5031077;28;20049;-85
2021/12/22 05:25:41;;;;;;;23.83;16.27;;;;;;;-144.19;100.00;80127.88;5013770;28;20045;-87
2021/12/22 05:28:08;;;;;;;24.60;16.20;;;;;;;-144.19;100.00;80120.00;5012902;28;20057;-86
2021/12/22 05:30:34;;;;;;;23.90;15.70;;;;;;;-144.19;100.00;80120.00;5031679;28;20060;-90
2021/12/22 05:33:01;;;;;;;23.52;15.13;;;;;;;-144.19;100.00;80135.75;5013826;28;20046;-86
2021/12/22 05:35:27;;;;;;;24.65;16.67;;;;;;;-144.19;100.00;80129.84;5034378;28;20049;-85
2021/12/22 05:37:54;;;;;;;26.33;16.30;;;;;;;-144.19;100.00;80131.81;5013545;28;20064;-86
2021/12/22 05:40:20;;;;;;;14.73;10.35;;;;;;;-144.19;100.00;80143.63;5032183;28;20056;-85
2021/12/22 05:42:47;;;;;;;26.13;15.95;;;;;;;-144.19;100.00;80143.63;5033201;28;20377;-86
2021/12/22 05:45:14;;;;;;;25.50;15.40;;;;;;;-144.19;100.00;80131.81;5035130;28;20054;-84
2021/12/22 05:47:40;;;;;;;25.73;16.15;;;;;;;-144.19;100.00;80129.84;5018389;28;20056;-84
2021/12/22 05:50:07;;;;;;;24.77;16.65;;;;;;;-144.19;100.00;80121.97;5018139;28;20041;-83
2021/12/22 05:52:34;;;;;;;27.35;16.75;;;;;;;-144.19;100.00;80121.97;5018024;28;20057;-86
2021/12/22 05:55:01;;;;;;;25.88;15.63;;;;;;;-144.19;100.00;80120.00;5017065;28;20056;-86
2021/12/22 05:57:27;;;;;;;27.30;16.08;;;;;;;-144.19;100.00;80123.94;5015992;28;20077;-87
2021/12/22 05:59:53;;;;;;;28.45;16.85;;;;;;;-144.19;100.00;80129.84;5029668;28;20053;-86
2021/12/22 06:02:20;;;;;;;28.17;16.10;;;;;;;-144.19;100.00;80127.88;5017161;28;20057;-85
2021/12/22 06:04:46;;;;;;;23.63;14.88;;;;;;;-144.19;100.00;80123.94;5017240;28;20099;-84
2021/12/22 06:07:13;;;;;;;22.45;16.00;;;;;;;-144.19;100.00;80118.03;5018683;28;20064;-88
2021/12/22 06:09:39;;;;;;;24.20;15.95;;;;;;;-144.19;100.00;80123.94;5019284;28;20135;-87
2021/12/22 06:12:06;;;;;;;26.23;16.10;;;;;;;-144.19;100.00;80120.00;5020115;28;20079;-86
2021/12/22 06:14:32;;;;;;;22.27;15.02;;;;;;;-144.19;100.00;80139.69;5036628;28;20060;-86
2021/12/22 06:16:59;;;;;;;26.58;16.15;;;;;;;-144.19;100.00;80131.81;5018369;28;20422;-88
2021/12/22 06:19:25;;;;;;;27.67;16.13;;;;;;;-144.19;100.00;80131.81;5020249;28;20057;-85
2021/12/22 06:21:52;;;;;;;25.67;16.52;;;;;;;-144.19;100.00;80125.91;5018451;28;20060;-87
2021/12/22 06:24:18;;;;;;;25.55;15.45;;;;;;;-144.19;100.00;80112.13;5035906;28;20052;-87
2021/12/22 06:26:45;;;;;;;24.63;15.00;;;;;;;-144.19;100.00;80120.00;5036120;28;20141;-87
2021/12/22 06:29:12;;;;;;;22.85;15.02;;;;;;;-144.19;100.00;80120.00;5036443;28;20053;-85
2021/12/22 06:31:38;;;;;;;27.35;15.90;;;;;;;-144.19;100.00;80135.75;5018784;28;20052;-87
2021/12/22 06:34:06;;;;;;;24.13;15.20;;;;;;;-144.19;100.00;80137.72;5019454;28;20507;-89
2021/12/22 06:36:34;;;;;;;26.40;15.63;;;;;;;-144.19;100.00;80139.69;5031988;28;20053;-86
2021/12/22 06:39:00;;;;;;;26.00;15.65;;;;;;;-144.19;100.00;80127.88;5034630;28;20530;-86
2021/12/22 06:41:28;;;;;;;27.58;15.60;;;;;;;-144.19;100.00;80123.94;5034526;28;20068;-87
2021/12/22 06:43:54;;;;;;;28.73;15.70;;;;;;;-144.19;100.00;80135.75;5033981;28;20060;-87
2021/12/22 06:46:20;;;;;;;25.38;16.05;;;;;;;-144.19;100.00;80123.94;5021427;28;20056;-85
2021/12/22 06:48:47;;;;;;;26.15;15.13;;;;;;;-144.19;100.00;80121.97;5034479;28;20046;-85
2021/12/22 06:51:13;;;;;;;29.15;16.50;;;;;;;-144.19;100.00;80114.09;5016976;28;20084;-85
2021/12/22 06:53:40;;;;;;;27.20;15.52;;;;;;;-144.19;100.00;80114.09;5015807;28;20049;-85
2021/12/22 06:56:06;;;;;;;27.77;16.83;;;;;;;-144.19;100.00;80116.06;5017411;28;20071;-87
2021/12/22 06:58:33;;;;;;;25.88;16.10;;;;;;;-144.19;100.00;80118.03;5016471;28;20045;-86
2021/12/22 07:01:00;;;;;;;25.23;14.98;;;;;;;-144.19;100.00;80139.69;5040338;28;20070;-86
2021/12/22 07:03:27;;;;;;;23.77;15.82;;;;;;;-144.19;100.00;80127.88;5034062;28;20053;-88
2021/12/22 07:05:54;;;;;;;25.05;16.00;;;;;;;-144.19;100.00;80125.91;5015700;28;20140;-87
2021/12/22 07:08:20;;;;;;;22.48;15.65;;;;;;;-144.19;100.00;80123.94;5016229;28;20045;-85
2021/12/22 07:10:47;;;;;;;27.42;15.88;;;;;;;-144.19;100.00;80123.94;5016484;28;20053;-85
2021/12/22 07:13:14;;;;;;;24.92;14.80;;;;;;;-144.19;100.00;80121.97;5016877;28;20061;-86
2021/12/22 07:15:43;;;;;;;25.73;16.33;;;;;;;-144.19;100.00;80116.06;5033594;28;20056;-86
2021/12/22 07:18:13;;;;;;;26.20;15.73;;;;;;;-144.19;100.00;80135.75;5034550;28;20077;-85
2021/12/22 07:20:40;;;;;;;24.45;15.18;;;;;;;-144.19;100.00;80131.81;5015476;28;20045;-87
2021/12/22 07:23:06;;;;;;;;;;;;;;;-144.19;100.00;80120.00;5015875;28;20060;-86
2021/12/22 07:25:33;;;;;;;25.52;15.60;;;;;;;-144.19;100.00;80121.97;5015016;28;19920;-89
2021/12/22 07:27:59;;;;;;;25.50;17.17;;;;;;;-144.19;100.00;80120.00;5015454;28;20053;-86
2021/12/22 07:30:26;;;;;;;42.63;18.20;;;;;;;-144.19;100.00;80120.00;5016042;28;20054;-86
2021/12/22 07:32:58;;;;;;;28.35;18.13;;;;;;;-144.19;100.00;80120.00;5034946;28;20132;-88
2021/12/22 07:36:13;;;;;;;27.88;17.23;;;;;;;-144.19;100.00;80137.72;5022335;28;20045;-88
2021/12/22 07:38:39;;;;;;;28.13;16.50;;;;;;;-144.19;100.00;80135.75;4977545;28;20070;-86
2021/12/22 07:41:09;;;;;;;28.15;16.80;;;;;;;-144.19;100.00;80127.88;4992160;28;20142;-83
2021/12/22 07:43:36;;;;;;;31.85;18.20;;;;;;;-144.19;100.00;80125.91;4995786;28;20060;-85
2021/12/22 07:46:03;;;;;;;29.80;17.70;;;;;;;-144.19;100.00;80129.84;4995204;28;20619;-85
2021/12/22 07:48:30;;;;;;;31.08;18.88;;;;;;;-144.19;100.00;80135.75;4995802;28;20092;-86
2021/12/22 07:50:56;;;;;;;30.88;17.88;;;;;;;-144.19;100.00;80127.88;4997475;28;20427;-86
2021/12/22 07:53:23;;;;;;;31.02;18.35;;;;;;;-144.19;100.00;80116.06;5032558;28;20050;-86
2021/12/22 07:55:53;;;;;;;30.25;17.83;;;;;;;-144.19;100.00;80118.03;5014442;28;20061;-86
2021/12/22 07:58:22;;;;;;;29.15;17.17;;;;;;;-144.19;100.00;80100.28;5015583;28;20206;-87
2021/12/22 08:00:49;;;;;;;28.95;17.40;;;;;;;-144.19;100.00;80102.25;5014582;28;20045;-86
2021/12/22 08:03:16;;;;;;;27.70;16.40;;;;;;;-144.19;100.00;80098.31;5036883;28;20484;-84
2021/12/22 08:06:02;;;;;;;25.25;16.67;;;;;;;-144.19;100.00;80088.47;5027362;28;20084;-84
2021/12/22 08:08:29;;;;;;;28.05;16.52;;;;;;;-144.19;100.00;80076.66;5032127;28;20060;-83
2021/12/22 08:10:55;;;;;;;26.95;16.42;;;;;;;-144.19;100.00;80072.72;5023658;28;20046;-83
2021/12/22 08:13:22;;;;;;;26.08;16.30;;;;;;;-144.19;100.00;80062.84;5022276;28;20702;-84
2021/12/22 08:15:48;;;;;;;30.70;16.10;;;;;;;-144.19;100.00;80060.88;5028026;28;20053;-83
2021/12/22 08:18:15;;;;;;;29.63;17.52;;;;;;;-144.19;100.00;80060.88;5031389;28;20152;-85
2021/12/22 08:20:41;;;;;;;28.50;16.85;;;;;;;-144.19;100.00;80072.72;5031390;28;20049;-85
2021/12/22 08:23:07;;;;;;;28.30;16.00;;;;;;;-144.19;100.00;80098.31;5032279;28;20056;-87
2021/12/22 08:25:34;;;;;;;29.67;16.92;;;;;;;-144.19;100.00;80080.59;5033483;28;20245;-86
2021/12/22 08:28:00;;;;;;;47.10;24.85;;;;;;;-144.19;100.00;80064.84;5020886;28;20056;-86
2021/12/22 08:30:27;;;;;;;42.38;24.73;;;;;;;-144.19;100.00;80047.09;5015350;28;20053;-85
2021/12/22 08:32:55;;;;;;;46.38;23.95;;;;;;;-144.19;100.00;80043.16;5015588;28;20061;-84
2021/12/22 08:35:24;;;;;;;44.97;22.65;;;;;;;-144.19;100.00;80041.19;5020796;28;20514;-82
2021/12/22 08:40:37;;;;;;;41.00;23.45;;;;;;;-144.19;100.00;80013.59;5031611;28;20050;-86
2021/12/22 08:43:03;;;;;;;39.22;21.30;;;;;;;-144.19;100.00;80009.66;5031939;28;20068;-85
2021/12/22 08:45:30;;;;;;;41.05;23.40;;;;;;;-144.19;100.00;79993.91;5019322;28;20523;-87
2021/12/22 08:47:56;;;;;;;41.05;23.13;;;;;;;-144.19;100.00;79993.91;5015318;28;20060;-84
2021/12/22 08:50:24;;;;;;;37.10;22.23;;;;;;;-144.19;100.00;80001.78;5034779;28;20049;-86
2021/12/22 08:52:51;;;;;;;43.42;26.55;;;;;;;-144.19;100.00;79986.03;5012973;28;20136;-84
2021/12/22 08:55:17;;;;;;;43.58;26.20;;;;;;;-144.19;100.00;79976.19;5009481;28;20467;-85
2021/12/22 08:57:44;;;;;;;56.67;31.42;;;;;;;-144.19;100.00;79966.31;5014572;28;20067;-86
2021/12/22 09:00:12;;;;;;;42.15;23.63;;;;;;;-144.19;100.00;79952.53;5015445;28;20174;-86
2021/12/22 09:02:39;;;;;;;39.83;23.23;;;;;;;-144.19;100.00;79940.72;5015811;28;20053;-87
2021/12/22 09:05:08;;;;;;;44.47;25.33;;;;;;;-144.19;100.00;79936.78;5013779;28;20053;-86
2021/12/22 09:07:34;;;;;;;;;;;;;;;-144.19;100.00;79921.00;5010357;28;20060;-85
2021/12/22 09:10:01;;;;;;;43.22;24.90;;;;;;;-144.19;100.00;79922.97;5009127;28;19937;-86
2021/12/22 09:12:29;;;;;;;37.97;24.42;;;;;;;-144.19;100.00;79907.22;5014391;28;20054;-84
2021/12/22 09:14:56;;;;;;;37.40;23.15;;;;;;;-144.19;100.00;79889.50;5030981;28;20049;-85
2021/12/22 09:17:23;;;;;;;38.22;24.13;;;;;;;-144.19;100.00;79877.69;5025695;28;20422;-84
2021/12/22 09:19:52;;;;;;;37.80;22.88;;;;;;;-144.19;100.00;79867.81;5034170;28;20045;-84
2021/12/22 09:22:19;;;;;;;42.88;25.23;;;;;;;-144.19;100.00;79859.94;5017572;28;20136;-84
2021/12/22 09:24:45;;;;;;;;;;;;;;;-144.19;100.00;79840.25;5017862;28;20053;-84
2021/12/22 09:27:12;;;;;;;40.80;24.77;;;;;;;-144.19;100.00;79828.44;5034999;28;19928;-86
2021/12/22 09:29:39;;;;;;;41.55;22.83;;;;;;;-144.19;100.00;79824.47;5022680;28;20049;-85
2021/12/22 09:32:06;;;;;;;37.53;23.08;;;;;;;-144.19;100.00;79816.59;5034309;28;20132;-87
2021/12/22 09:34:33;;;;;;;38.03;22.73;;;;;;;-144.19;100.00;79808.72;5033755;28;20045;-85
2021/12/22 09:36:59;;;;;;;36.92;24.27;;;;;;;-144.19;100.00;79800.84;5034048;28;20052;-84
2021/12/22 09:39:25;;;;;;;43.97;24.98;;;;;;;-144.19;100.00;79794.94;5019674;28;20056;-85
2021/12/22 09:41:52;;;;;;;47.80;25.15;;;;;;;-144.19;100.00;79781.16;5033408;28;20053;-83
2021/12/22 09:44:18;;;;;;;40.53;23.42;;;;;;;-144.19;100.00;79761.44;5027453;28;20523;-83
2021/12/22 09:46:51;;;;;;;39.03;23.52;;;;;;;-144.19;100.00;79749.63;5031660;28;20041;-84
2021/12/22 09:49:34;;;;;;;36.90;22.83;;;;;;;-144.19;100.00;79729.91;5016425;28;20049;-85
2021/12/22 09:52:17;;;;;;;39.03;22.65;;;;;;;-144.19;100.00;79714.16;5016384;28;20050;-84
2021/12/22 09:54:52;;;;;;;38.80;23.15;;;;;;;-144.19;100.00;79690.53;5034738;28;20947;-85
2021/12/22 09:57:21;;;;;;;41.33;22.98;;;;;;;-144.19;100.00;79676.72;5033696;28;20049;-87
2021/12/22 09:59:49;;;;;;;38.80;24.05;;;;;;;-144.19;100.00;79662.94;5017514;28;20119;-84
2021/12/22 10:02:18;;;;;;;41.78;21.77;;;;;;;-144.19;100.00;79647.19;5033434;28;20046;-84
2021/12/22 10:04:46;;;;;;;38.75;23.20;;;;;;;-144.19;100.00;79637.34;5034055;28;20057;-84
2021/12/22 10:07:19;;;;;;;;;;;;;;;-144.19;100.00;79629.47;5016354;28;20049;-81
2021/12/22 10:09:47;;;;;;;38.20;22.67;;;;;;;-144.19;100.00;79619.59;5013183;28;20308;-84
2021/12/22 10:12:19;;;;;;;45.22;22.70;;;;;;;-144.19;100.00;79611.72;5020573;28;20049;-85
2021/12/22 10:14:50;;;;;;;42.20;24.02;;;;;;;-144.19;100.00;79599.91;5026241;28;20499;-86
2021/12/22 10:17:38;;;;;;;45.28;25.17;;;;;;;-144.19;100.00;79588.09;5017333;28;20049;-84
2021/12/22 10:20:11;;;;;;;48.38;27.48;;;;;;;-144.19;100.00;79582.19;5019557;28;20056;-85
2021/12/22 10:22:43;;;;;;;45.05;25.90;;;;;;;-144.19;100.00;79552.63;5022209;28;20068;-86
2021/12/22 10:25:18;;;;;;;44.85;24.88;;;;;;;-144.19;100.00;79499.44;5019009;28;20053;-84
2021/12/22 10:27:57;;;;;;;56.10;25.63;;;;;;;-144.19;100.00;79424.59;5015901;28;20514;-85
2021/12/22 10:30:34;;;;;;;51.40;26.35;;;;;;;-144.19;100.00;79312.31;5015993;28;20052;-87
2021/12/22 10:33:09;;;;;;;51.50;27.23;;;;;;;-144.19;100.00;79270.94;5016988;28;20068;-89
2021/12/22 10:35:38;;;;;;;48.92;29.27;;;;;;;-144.19;100.00;79202.00;5017456;28;20053;-83
2021/12/22 10:38:06;;;;;;;48.53;28.10;;;;;;;-144.19;100.00;79144.88;5033166;28;20507;-86
2021/12/22 10:40:36;;;;;;;49.05;29.10;;;;;;;-144.19;100.00;79089.72;5016194;28;20056;-85
2021/12/22 10:43:05;;;;;;;44.85;27.15;;;;;;;-144.19;100.00;79056.25;5022354;28;20053;-84
2021/12/22 10:45:34;;;;;;;45.85;26.08;;;;;;;-144.19;100.00;79068.06;5022859;28;20728;-86
2021/12/22 10:50:56;;;;;;;40.08;24.30;;;;;;;-144.19;100.00;79048.38;5031501;28;20041;-82
2021/12/22 10:53:22;;;;;;;36.88;22.88;;;;;;;-144.19;100.00;79030.66;5018148;28;20067;-84
2021/12/22 10:55:51;;;;;;;31.40;19.48;;;;;;;-144.19;100.00;79010.94;5031112;28;20598;-84
2021/12/22 10:58:32;;;;;;;32.55;20.98;;;;;;;-144.19;100.00;79046.41;5032244;28;20064;-85
2021/12/22 11:01:14;;;;;;;29.65;19.33;;;;;;;-144.19;100.00;79028.69;5030273;28;20041;-84
2021/12/22 11:03:47;;;;;;;34.75;18.38;;;;;;;-144.19;100.00;78997.16;5030231;28;20058;-88
2021/12/22 11:06:27;;;;;;;32.28;19.08;;;;;;;-144.19;100.00;78993.22;5031226;28;20045;-84
2021/12/22 11:09:10;;;;;;;31.75;20.33;;;;;;;-144.19;100.00;78981.41;5032050;28;20430;-84
2021/12/22 11:11:38;;;;;;;31.55;19.05;;;;;;;-144.19;100.00;78967.63;5031961;28;20049;-84
2021/12/22 11:14:41;;;;;;;34.25;19.02;;;;;;;-144.19;100.00;78930.19;5033698;28;20049;-86
2021/12/22 11:17:18;;;;;;;37.10;22.25;;;;;;;-144.19;100.00;78882.94;5015306;28;20055;-88
2021/12/22 11:19:48;;;;;;;34.97;20.73;;;;;;;-144.19;100.00;78938.06;5018306;28;20068;-84